createdAt,value
2023-02-28T00:01:16.978Z,6.56
2023-02-28T00:03:18.947Z,6.48
2023-02-28T00:05:22.542Z,6.48
2023-02-28T00:07:24.343Z,6.41
2023-02-28T00:09:26.168Z,6.43
2023-02-28T00:11:28.213Z,6.44
2023-02-28T00:13:30.239Z,6.46
2023-02-28T00:15:33.738Z,6.45
2023-02-28T00:17:36.264Z,6.41
2023-02-28T00:19:38.112Z,6.45
2023-02-28T00:21:40.010Z,6.49
2023-02-28T00:23:41.975Z,6.50
2023-02-28T00:25:44.004Z,6.47
2023-02-28T00:27:46.315Z,6.47
2023-02-28T00:29:48.135Z,6.41
2023-02-28T00:31:51.135Z,6.38
2023-02-28T00:33:52.867Z,6.12
2023-02-28T00:36:03.218Z,6.05
2023-02-28T00:38:04.950Z,6.06
2023-02-28T00:40:08.330Z,6.07
2023-02-28T00:42:09.918Z,6.11
2023-02-28T00:44:12.079Z,6.18
2023-02-28T00:46:15.914Z,6.23
2023-02-28T00:48:18.876Z,6.18
2023-02-28T00:50:20.875Z,6.07
2023-02-28T00:52:22.512Z,6.05
2023-02-28T00:54:24.891Z,6.11
2023-02-28T00:56:26.568Z,6.04
2023-02-28T00:58:28.257Z,5.84
2023-02-28T01:00:29.849Z,5.60
2023-02-28T01:02:31.517Z,5.48
2023-02-28T01:04:34.740Z,5.39
2023-02-28T01:06:36.672Z,5.33
2023-02-28T01:08:38.404Z,5.29
2023-02-28T01:10:40.155Z,5.48
2023-02-28T01:12:41.764Z,5.42
2023-02-28T01:14:43.638Z,5.30
2023-02-28T01:16:45.632Z,5.24
2023-02-28T01:18:47.330Z,5.30
2023-02-28T01:20:50.465Z,5.15
2023-02-28T01:22:52.080Z,5.32
2023-02-28T01:24:55.049Z,5.39
2023-02-28T01:26:56.691Z,5.30
2023-02-28T01:28:58.983Z,5.25
2023-02-28T01:31:00.654Z,5.18
2023-02-28T01:33:02.363Z,5.16
2023-02-28T01:35:04.436Z,5.12
2023-02-28T01:37:07.338Z,4.98
2023-02-28T01:39:09.019Z,4.99
2023-02-28T01:41:17.900Z,4.94
2023-02-28T01:43:24.462Z,4.99
2023-02-28T01:45:28.314Z,4.94
2023-02-28T01:47:33.803Z,4.90
2023-02-28T01:49:35.732Z,4.92
2023-02-28T01:51:42.180Z,4.80
2023-02-28T01:53:48.675Z,4.74
2023-02-28T01:55:53.496Z,4.74
2023-02-28T01:57:59.123Z,4.85
2023-02-28T02:00:03.954Z,4.88
2023-02-28T02:04:39.888Z,4.67
2023-02-28T02:06:44.705Z,4.71
2023-02-28T02:08:47.654Z,4.67
2023-02-28T02:10:52.246Z,4.65
2023-02-28T02:13:09.506Z,4.62
2023-02-28T02:15:16.862Z,4.44
2023-02-28T02:17:27.177Z,4.45
2023-02-28T02:20:00.839Z,4.22
2023-02-28T02:22:23.878Z,4.29
2023-02-28T02:25:00.288Z,4.19
2023-02-28T02:27:16.803Z,4.24
2023-02-28T02:29:48.026Z,4.20
2023-02-28T02:32:03.184Z,4.18
2023-02-28T02:34:40.146Z,4.08
2023-02-28T02:36:46.620Z,3.98
2023-02-28T02:38:53.059Z,4.06
2023-02-28T02:41:05.199Z,3.95
2023-02-28T02:43:11.530Z,3.88
2023-02-28T02:45:18.285Z,3.93
2023-02-28T02:47:23.940Z,3.78
2023-02-28T02:49:30.654Z,3.92
2023-02-28T02:51:34.730Z,3.78
2023-02-28T02:53:41.777Z,3.74
2023-02-28T02:55:47.953Z,3.84
2023-02-28T02:57:53.729Z,3.98
2023-02-28T02:59:57.278Z,3.94
2023-02-28T03:02:02.633Z,3.88
2023-02-28T03:04:08.327Z,3.80
2023-02-28T03:06:09.935Z,3.81
2023-02-28T03:08:12.987Z,3.54
2023-02-28T03:10:35.560Z,3.30
2023-02-28T03:12:45.628Z,3.25
2023-02-28T03:14:56.866Z,3.31
2023-02-28T03:17:15.380Z,3.37
2023-02-28T03:19:39.362Z,3.24
2023-02-28T03:21:47.564Z,3.24
2023-02-28T03:23:58.300Z,3.23
2023-02-28T03:26:05.106Z,3.33
2023-02-28T03:28:15.575Z,3.35
2023-02-28T03:30:23.869Z,3.21
2023-02-28T03:32:29.958Z,3.35
2023-02-28T03:34:36.466Z,3.37
2023-02-28T03:36:42.513Z,3.39
2023-02-28T03:38:47.758Z,3.47
2023-02-28T03:40:56.058Z,3.39
2023-02-28T03:43:03.374Z,3.27
2023-02-28T03:45:10.117Z,3.48
2023-02-28T03:47:16.261Z,3.73
2023-02-28T03:49:21.501Z,3.72
2023-02-28T03:51:25.738Z,3.54
2023-02-28T03:53:30.612Z,3.58
2023-02-28T03:55:39.853Z,3.59
2023-02-28T03:57:53.969Z,3.52
2023-02-28T04:00:00.478Z,3.38
2023-02-28T04:02:02.598Z,3.42
2023-02-28T04:04:05.015Z,3.31
2023-02-28T04:06:09.161Z,3.26
2023-02-28T04:08:10.768Z,3.34
2023-02-28T04:10:13.151Z,3.31
2023-02-28T04:12:14.737Z,3.36
2023-02-28T04:14:17.646Z,3.22
2023-02-28T04:16:33.976Z,3.03
2023-02-28T04:18:36.818Z,3.23
2023-02-28T04:20:38.430Z,3.03
2023-02-28T04:22:39.999Z,2.98
2023-02-28T04:24:41.643Z,3.03
2023-02-28T04:26:45.441Z,2.93
2023-02-28T04:28:47.061Z,2.84
2023-02-28T04:30:55.683Z,2.95
2023-02-28T04:33:00.799Z,3.00
2023-02-28T04:35:02.464Z,3.08
2023-02-28T04:37:13.953Z,2.96
2023-02-28T04:39:15.997Z,2.77
2023-02-28T04:41:17.688Z,2.69
2023-02-28T04:43:22.321Z,2.83
2023-02-28T04:45:23.907Z,2.71
2023-02-28T04:47:26.816Z,2.89
2023-02-28T04:49:28.371Z,2.80
2023-02-28T04:51:30.507Z,2.92
2023-02-28T04:53:32.999Z,2.85
2023-02-28T04:55:34.613Z,2.81
2023-02-28T04:57:36.274Z,2.77
2023-02-28T04:59:37.970Z,2.70
2023-02-28T05:01:39.548Z,2.65
2023-02-28T05:03:42.995Z,2.57
2023-02-28T05:05:44.597Z,2.66
2023-02-28T05:07:46.205Z,2.62
2023-02-28T05:09:47.864Z,2.44
2023-02-28T05:11:49.445Z,2.47
2023-02-28T05:13:52.008Z,2.40
2023-02-28T05:15:53.681Z,2.52
2023-02-28T05:17:55.384Z,2.62
2023-02-28T05:20:09.726Z,2.43
2023-02-28T05:22:14.936Z,2.37
2023-02-28T05:24:16.717Z,2.37
2023-02-28T05:26:18.315Z,2.35
2023-02-28T05:28:19.902Z,2.40
2023-02-28T05:30:21.733Z,2.51
2023-02-28T05:32:23.492Z,2.55
2023-02-28T05:34:25.053Z,2.58
2023-02-28T05:36:28.423Z,2.58
2023-02-28T05:38:30.091Z,2.47
2023-02-28T05:40:31.710Z,2.46
2023-02-28T05:42:33.264Z,2.42
2023-02-28T05:44:34.908Z,2.39
2023-02-28T05:46:36.535Z,2.44
2023-02-28T05:48:39.552Z,2.45
2023-02-28T05:50:41.314Z,2.36
2023-02-28T05:52:44.252Z,2.42
2023-02-28T05:54:47.168Z,2.53
2023-02-28T05:56:48.704Z,2.47
2023-02-28T05:58:50.270Z,2.50
2023-02-28T06:00:52.208Z,2.56
2023-02-28T06:02:53.851Z,2.55
2023-02-28T06:04:55.439Z,2.39
2023-02-28T06:06:57.116Z,2.53
2023-02-28T06:09:00.012Z,2.57
2023-02-28T06:11:03.936Z,2.62
2023-02-28T06:13:05.889Z,2.58
2023-02-28T06:15:08.592Z,2.58
2023-02-28T06:17:10.845Z,2.54
2023-02-28T06:19:12.477Z,2.51
2023-02-28T06:21:14.089Z,2.47
2023-02-28T06:23:15.621Z,2.54
2023-02-28T06:25:18.892Z,2.54
2023-02-28T06:27:20.404Z,2.64
2023-02-28T06:29:22.238Z,2.65
2023-02-28T06:31:24.046Z,2.71
2023-02-28T06:33:25.823Z,2.82
2023-02-28T06:35:27.424Z,2.80
2023-02-28T06:37:29.061Z,2.90
2023-02-28T06:39:30.889Z,2.83
2023-02-28T06:41:47.919Z,2.74
2023-02-28T06:43:55.060Z,2.80
2023-02-28T06:45:58.472Z,2.75
2023-02-28T06:48:00.115Z,2.80
2023-02-28T06:50:01.749Z,2.97
2023-02-28T06:52:03.764Z,3.05
2023-02-28T06:54:06.462Z,3.00
2023-02-28T06:56:10.074Z,2.96
2023-02-28T06:58:12.979Z,2.95
2023-02-28T07:00:15.677Z,3.04
2023-02-28T07:02:17.341Z,2.95
2023-02-28T07:04:18.904Z,2.97
2023-02-28T07:06:20.753Z,2.95
2023-02-28T07:08:22.432Z,3.08
2023-02-28T07:10:24.203Z,3.10
2023-02-28T07:12:25.910Z,3.19
2023-02-28T07:14:28.795Z,3.24
2023-02-28T07:16:30.357Z,3.36
2023-02-28T07:18:32.659Z,3.21
2023-02-28T07:20:34.250Z,3.27
2023-02-28T07:22:35.824Z,3.11
2023-02-28T07:24:37.378Z,3.12
2023-02-28T07:26:39.016Z,3.15
2023-02-28T07:28:40.536Z,3.17
2023-02-28T07:30:43.604Z,3.37
2023-02-28T07:32:45.408Z,3.47
2023-02-28T07:34:46.965Z,3.35
2023-02-28T07:36:48.710Z,3.43
2023-02-28T07:38:50.478Z,3.53
2023-02-28T07:40:52.170Z,3.55
2023-02-28T07:42:53.754Z,3.59
2023-02-28T07:44:55.324Z,3.73
2023-02-28T07:46:58.742Z,3.77
2023-02-28T07:49:00.430Z,3.84
2023-02-28T07:51:02.624Z,3.93
2023-02-28T07:53:05.774Z,4.00
2023-02-28T07:55:09.071Z,4.26
2023-02-28T07:57:10.712Z,4.48
2023-02-28T07:59:12.388Z,4.41
2023-02-28T08:01:14.187Z,4.44
2023-02-28T08:03:18.027Z,4.55
2023-02-28T08:05:21.977Z,4.56
2023-02-28T08:07:23.864Z,4.61
2023-02-28T08:09:25.598Z,4.65
2023-02-28T08:11:27.344Z,4.65
2023-02-28T08:13:29.921Z,4.69
2023-02-28T08:15:31.648Z,4.87
2023-02-28T08:17:35.358Z,4.63
2023-02-28T08:19:38.399Z,4.89
2023-02-28T08:21:48.616Z,5.16
2023-02-28T08:23:51.405Z,5.02
2023-02-28T08:25:56.422Z,4.97
2023-02-28T08:27:58.270Z,5.13
2023-02-28T08:29:59.835Z,5.28
2023-02-28T08:32:01.571Z,5.28
2023-02-28T08:34:06.392Z,5.25
2023-02-28T08:36:09.996Z,5.45
2023-02-28T08:38:11.605Z,5.66
2023-02-28T08:40:13.284Z,5.73
2023-02-28T08:42:14.919Z,5.70
2023-02-28T08:44:16.548Z,5.88
2023-02-28T08:46:18.474Z,5.69
2023-02-28T08:48:20.078Z,5.78
2023-02-28T08:50:22.004Z,5.85
2023-02-28T08:52:24.947Z,5.87
2023-02-28T08:54:26.616Z,6.03
2023-02-28T08:56:29.819Z,6.03
2023-02-28T08:58:31.974Z,6.02
2023-02-28T09:00:33.523Z,5.96
2023-02-28T09:02:35.102Z,5.99
2023-02-28T09:04:36.668Z,6.08
2023-02-28T09:06:39.191Z,6.35
2023-02-28T09:08:42.731Z,6.27
2023-02-28T09:10:44.384Z,6.23
2023-02-28T09:12:46.071Z,6.30
2023-02-28T09:14:47.642Z,6.55
2023-02-28T09:16:49.486Z,6.58
2023-02-28T09:18:51.231Z,6.85
2023-02-28T09:20:53.328Z,6.89
2023-02-28T09:22:55.001Z,6.93
2023-02-28T09:24:57.898Z,7.29
2023-02-28T09:27:05.092Z,7.37
2023-02-28T09:29:07.234Z,7.38
2023-02-28T09:31:13.681Z,7.59
2023-02-28T09:33:21.651Z,7.64
2023-02-28T09:35:25.167Z,7.64
2023-02-28T09:37:26.797Z,7.70
2023-02-28T09:39:28.487Z,7.61
2023-02-28T09:41:39.046Z,7.74
2023-02-28T09:43:44.277Z,8.04
2023-02-28T09:45:53.510Z,7.98
2023-02-28T09:47:59.844Z,8.17
2023-02-28T09:50:23.103Z,8.04
2023-02-28T09:52:29.279Z,7.99
2023-02-28T09:54:33.742Z,8.06
2023-02-28T09:56:39.831Z,8.03
2023-02-28T09:58:50.252Z,8.26
2023-02-28T10:01:01.195Z,8.42
2023-02-28T10:03:26.320Z,8.48
2023-02-28T10:05:31.181Z,8.63
2023-02-28T10:07:48.994Z,8.62
2023-02-28T10:09:56.066Z,8.93
2023-02-28T10:12:04.833Z,8.95
2023-02-28T10:14:14.082Z,8.97
2023-02-28T10:16:21.104Z,8.88
2023-02-28T10:18:28.212Z,8.69
2023-02-28T10:20:34.511Z,8.65
2023-02-28T10:22:42.394Z,8.87
2023-02-28T10:24:45.856Z,8.97
2023-02-28T10:26:48.765Z,8.70
2023-02-28T10:28:54.051Z,8.78
2023-02-28T10:30:56.371Z,8.79
2023-02-28T10:32:58.043Z,8.68
2023-02-28T10:35:07.369Z,8.40
2023-02-28T10:37:09.655Z,8.41
2023-02-28T10:39:36.124Z,8.27
2023-02-28T10:41:44.356Z,8.06
2023-02-28T10:43:45.964Z,8.06
2023-02-28T10:45:59.229Z,8.24
2023-02-28T10:48:03.678Z,8.47
2023-02-28T10:50:05.986Z,8.55
2023-02-28T10:52:10.605Z,8.84
2023-02-28T10:54:17.237Z,8.69
2023-02-28T10:56:20.775Z,9.10
2023-02-28T10:58:23.480Z,9.12
2023-02-28T11:00:32.936Z,9.07
2023-02-28T11:02:37.572Z,9.10
2023-02-28T11:04:39.395Z,9.18
2023-02-28T11:06:41.068Z,9.32
2023-02-28T11:08:52.117Z,9.49
2023-02-28T11:10:59.669Z,9.89
2023-02-28T11:13:02.872Z,10.21
2023-02-28T11:15:18.773Z,10.36
2023-02-28T11:17:24.049Z,10.82
2023-02-28T11:19:30.935Z,10.99
2023-02-28T11:21:36.460Z,11.21
2023-02-28T11:23:41.869Z,11.22
2023-02-28T11:25:50.138Z,11.48
2023-02-28T11:27:53.311Z,11.34
2023-02-28T11:29:54.961Z,11.41
2023-02-28T11:32:14.314Z,11.58
2023-02-28T11:34:27.696Z,11.29
2023-02-28T11:36:31.452Z,11.50
2023-02-28T11:38:36.443Z,11.69
2023-02-28T11:40:45.051Z,11.82
2023-02-28T11:42:58.453Z,11.95
2023-02-28T11:45:13.399Z,11.83
2023-02-28T11:47:22.511Z,11.67
2023-02-28T11:49:34.142Z,11.45
2023-02-28T11:51:42.948Z,11.63
2023-02-28T11:54:12.566Z,11.47
2023-02-28T11:56:23.682Z,11.39
2023-02-28T11:58:37.820Z,11.32
2023-02-28T12:00:58.782Z,11.13
2023-02-28T12:38:29.604Z,11.13
2023-02-28T12:40:42.325Z,11.32
2023-02-28T12:42:48.319Z,11.13
2023-02-28T12:44:54.142Z,11.12
2023-02-28T12:47:00.598Z,11.02
2023-02-28T12:49:06.971Z,10.97
2023-02-28T12:51:10.278Z,10.78
2023-02-28T12:53:19.612Z,11.01
2023-02-28T12:55:31.447Z,11.18
2023-02-28T12:57:37.170Z,11.37
2023-02-28T12:59:44.860Z,11.21
2023-02-28T13:02:16.720Z,11.15
2023-02-28T13:04:33.177Z,11.05
2023-02-28T13:06:50.634Z,11.20
2023-02-28T13:09:05.720Z,10.97
2023-02-28T13:11:23.838Z,11.05
2023-02-28T13:13:27.311Z,10.66
2023-02-28T13:15:29.343Z,10.39
2023-02-28T13:17:31.212Z,10.33
2023-02-28T13:19:35.689Z,10.27
2023-02-28T13:21:44.604Z,10.43
2023-02-28T13:24:04.470Z,10.47
2023-02-28T13:26:06.516Z,10.51
2023-02-28T13:28:12.658Z,10.23
2023-02-28T13:30:51.598Z,10.39
2023-02-28T13:33:25.253Z,10.49
2023-02-28T13:35:38.010Z,10.56
2023-02-28T13:37:43.866Z,10.58
2023-02-28T13:39:50.823Z,10.57
2023-02-28T13:41:52.555Z,10.37
2023-02-28T13:44:04.496Z,10.45
2023-02-28T13:46:11.563Z,10.28
2023-02-28T13:48:19.870Z,10.33
2023-02-28T13:50:30.270Z,10.43
2023-02-28T13:52:38.372Z,10.26
2023-02-28T13:54:55.037Z,10.01
2023-02-28T13:57:09.983Z,10.01
2023-02-28T13:59:27.369Z,9.73
2023-02-28T14:02:01.951Z,9.57
2023-02-28T14:04:18.870Z,9.60
2023-02-28T14:06:26.919Z,9.53
2023-02-28T14:08:28.663Z,9.30
2023-02-28T14:10:33.578Z,9.52
2023-02-28T14:13:13.436Z,9.59
2023-02-28T14:15:53.637Z,9.60
2023-02-28T14:17:56.054Z,9.81
2023-02-28T14:19:59.035Z,9.34
2023-02-28T14:22:22.541Z,9.41
2023-02-28T14:24:51.218Z,9.56
2023-02-28T14:27:12.708Z,9.38
2023-02-28T14:29:30.931Z,9.47
2023-02-28T14:31:41.670Z,9.50
2023-02-28T14:34:06.067Z,9.53
2023-02-28T14:36:13.467Z,9.66
2023-02-28T14:38:20.570Z,9.61
2023-02-28T14:40:28.532Z,9.51
2023-02-28T14:42:32.152Z,9.44
2023-02-28T14:44:33.835Z,9.46
2023-02-28T14:46:40.041Z,9.34
2023-02-28T14:48:41.742Z,9.50
2023-02-28T14:50:50.448Z,9.27
2023-02-28T14:52:54.255Z,9.30
2023-02-28T14:54:59.077Z,9.37
2023-02-28T14:57:00.722Z,9.41
2023-02-28T14:59:02.344Z,9.40
2023-02-28T15:01:05.226Z,9.23
2023-02-28T15:03:20.790Z,9.15
2023-02-28T15:05:28.148Z,9.03
2023-02-28T15:07:29.961Z,8.88
2023-02-28T15:11:49.141Z,8.80
2023-02-28T15:13:53.164Z,8.91
2023-02-28T15:16:02.454Z,9.06
2023-02-28T15:18:07.425Z,9.07
2023-02-28T15:20:14.898Z,9.15
2023-02-28T15:22:20.271Z,9.12
2023-02-28T15:24:37.085Z,9.18
2023-02-28T15:26:42.080Z,8.97
2023-02-28T15:28:46.834Z,8.95
2023-02-28T15:30:56.545Z,9.08
2023-02-28T15:33:20.354Z,9.31
2023-02-28T15:35:29.070Z,9.33
2023-02-28T15:37:42.822Z,9.33
2023-02-28T15:39:45.629Z,9.41
2023-02-28T15:41:47.243Z,9.42
2023-02-28T15:43:48.910Z,9.27
2023-02-28T15:45:56.509Z,9.26
2023-02-28T15:48:02.665Z,9.08
2023-02-28T15:50:14.961Z,9.03
2023-02-28T15:52:22.189Z,9.17
2023-02-28T15:54:28.042Z,9.22
2023-02-28T15:56:32.360Z,9.20
2023-02-28T15:58:36.083Z,9.17
2023-02-28T16:00:37.753Z,9.27
2023-02-28T16:02:40.444Z,9.26
2023-02-28T16:05:03.861Z,9.19
2023-02-28T16:07:07.000Z,9.13
2023-02-28T16:09:13.174Z,9.16
2023-02-28T16:11:15.377Z,9.06
2023-02-28T16:13:16.968Z,8.99
2023-02-28T16:15:21.026Z,9.02
2023-02-28T16:17:25.400Z,8.83
2023-02-28T16:19:26.960Z,8.80
2023-02-28T16:21:28.803Z,8.70
2023-02-28T16:23:30.844Z,8.56
2023-02-28T16:25:37.900Z,8.71
2023-02-28T16:27:39.851Z,8.51
2023-02-28T16:29:41.621Z,8.52
2023-02-28T16:31:43.195Z,8.41
2023-02-28T16:33:45.868Z,8.46
2023-02-28T16:35:47.719Z,8.56
2023-02-28T16:37:51.230Z,8.56
2023-02-28T16:39:52.798Z,8.63
2023-02-28T16:41:55.767Z,8.60
2023-02-28T16:43:59.852Z,8.78
2023-02-28T16:46:01.766Z,8.93
2023-02-28T16:48:03.560Z,8.90
2023-02-28T16:50:10.294Z,8.72
2023-02-28T16:52:12.016Z,8.84
2023-02-28T16:54:13.614Z,8.80
2023-02-28T16:56:19.598Z,8.85
2023-02-28T16:58:22.611Z,8.78
2023-02-28T17:00:25.860Z,8.80
2023-02-28T17:02:27.626Z,8.73
2023-02-28T17:04:29.317Z,8.70
2023-02-28T17:06:34.070Z,8.71
2023-02-28T17:08:35.601Z,8.83
2023-02-28T17:10:37.177Z,8.80
2023-02-28T17:12:38.747Z,8.88
2023-02-28T17:14:41.716Z,8.80
2023-02-28T17:16:43.932Z,8.87
2023-02-28T17:18:48.686Z,8.70
2023-02-28T17:20:50.421Z,8.71
2023-02-28T17:22:52.340Z,8.72
2023-02-28T17:24:53.910Z,8.75
2023-02-28T17:26:55.575Z,8.79
2023-02-28T17:28:58.109Z,8.83
2023-02-28T17:31:01.096Z,8.66
2023-02-28T17:33:02.717Z,8.75
2023-02-28T17:37:20.753Z,8.85
2023-02-28T17:39:24.091Z,9.00
2023-02-28T17:41:26.228Z,9.02
2023-02-28T17:43:27.995Z,9.05
2023-02-28T17:45:29.600Z,9.09
2023-02-28T17:47:32.734Z,9.18
2023-02-28T17:49:34.407Z,9.15
2023-02-28T17:51:36.002Z,9.15
2023-02-28T17:53:37.533Z,9.16
2023-02-28T17:55:39.351Z,9.13
2023-02-28T17:57:41.538Z,9.15
2023-02-28T17:59:44.692Z,9.19
2023-02-28T18:01:46.321Z,9.24
2023-02-28T18:03:49.477Z,9.27
2023-02-28T18:05:51.147Z,9.17
2023-02-28T18:07:53.059Z,9.00
2023-02-28T18:09:54.749Z,8.98
2023-02-28T18:11:56.884Z,9.00
2023-02-28T18:13:58.519Z,9.06
2023-02-28T18:16:00.188Z,9.13
2023-02-28T18:18:01.967Z,9.22
2023-02-28T18:20:06.088Z,9.28
2023-02-28T18:22:07.684Z,9.20
2023-02-28T18:24:09.472Z,9.14
2023-02-28T18:26:11.107Z,9.19
2023-02-28T18:28:12.682Z,9.22
2023-02-28T18:30:19.787Z,9.27
2023-02-28T18:32:21.458Z,9.29
2023-02-28T18:34:24.074Z,9.34
2023-02-28T18:36:28.131Z,9.41
2023-02-28T18:38:30.069Z,9.43
2023-02-28T18:40:32.147Z,9.41
2023-02-28T18:42:33.718Z,9.40
2023-02-28T18:44:37.204Z,9.48
2023-02-28T18:46:38.935Z,9.47
2023-02-28T18:48:40.795Z,9.47
2023-02-28T18:50:42.592Z,9.52
2023-02-28T18:52:45.538Z,9.48
2023-02-28T18:54:47.111Z,9.38
2023-02-28T18:56:49.307Z,9.39
2023-02-28T18:58:51.415Z,9.40
2023-02-28T19:00:53.053Z,9.40
2023-02-28T19:02:54.686Z,9.37
2023-02-28T19:04:59.270Z,9.37
2023-02-28T19:07:03.844Z,9.28
2023-02-28T19:09:06.822Z,9.24
2023-02-28T19:11:09.447Z,9.20
2023-02-28T19:13:11.014Z,9.19
2023-02-28T19:15:13.495Z,9.13
2023-02-28T19:17:15.114Z,9.09
2023-02-28T19:19:16.839Z,9.00
2023-02-28T19:21:29.411Z,8.96
2023-02-28T19:23:32.122Z,8.91
2023-02-28T19:25:35.088Z,8.80
2023-02-28T19:27:36.986Z,8.60
2023-02-28T19:29:38.591Z,8.61
2023-02-28T19:31:41.157Z,8.68
2023-02-28T19:33:42.822Z,8.70
2023-02-28T19:35:44.452Z,8.64
2023-02-28T19:37:48.863Z,8.58
2023-02-28T19:39:50.445Z,8.60
2023-02-28T19:41:53.432Z,8.61
2023-02-28T19:43:55.097Z,8.59
2023-02-28T19:45:57.106Z,8.56
2023-02-28T19:47:58.733Z,8.51
2023-02-28T19:50:00.324Z,8.42
2023-02-28T19:52:02.105Z,8.47
2023-02-28T19:54:04.194Z,8.53
2023-02-28T19:56:07.064Z,8.54
2023-02-28T19:58:09.999Z,8.55
2023-02-28T20:00:14.619Z,8.63
2023-02-28T20:02:21.622Z,8.62
2023-02-28T20:04:24.158Z,8.64
2023-02-28T20:06:25.792Z,8.64
2023-02-28T20:08:27.477Z,8.67
2023-02-28T20:10:29.060Z,8.69
2023-02-28T20:12:30.602Z,8.66
2023-02-28T20:14:33.595Z,8.59
2023-02-28T20:16:35.427Z,8.62
2023-02-28T20:18:38.107Z,8.68
2023-02-28T20:20:39.685Z,8.62
2023-02-28T20:22:41.307Z,8.63
2023-02-28T20:24:43.516Z,8.55
2023-02-28T20:26:45.039Z,8.58
2023-02-28T20:28:46.972Z,8.63
2023-02-28T20:30:49.933Z,8.70
2023-02-28T20:32:51.575Z,8.67
2023-02-28T20:34:53.407Z,8.63
2023-02-28T20:36:55.028Z,8.59
2023-02-28T20:38:57.420Z,8.59
2023-02-28T20:41:01.123Z,8.56
2023-02-28T20:43:02.789Z,8.58
2023-02-28T20:45:04.992Z,8.56
2023-02-28T20:47:07.966Z,8.50
2023-02-28T20:49:09.845Z,8.46
2023-02-28T20:51:11.653Z,8.39
2023-02-28T20:53:13.212Z,8.34
2023-02-28T20:55:14.785Z,8.32
2023-02-28T20:57:16.534Z,8.32
2023-02-28T20:59:18.119Z,8.33
2023-02-28T21:01:21.629Z,8.35
2023-02-28T21:03:24.600Z,8.35
2023-02-28T21:05:26.235Z,8.29
2023-02-28T21:07:28.395Z,8.22
2023-02-28T21:09:30.022Z,8.26
2023-02-28T21:11:33.766Z,8.28
2023-02-28T21:13:35.468Z,8.28
2023-02-28T21:15:37.858Z,8.25
2023-02-28T21:17:39.493Z,8.20
2023-02-28T21:19:42.413Z,8.14
2023-02-28T21:21:45.211Z,8.16
2023-02-28T21:23:48.323Z,8.13
2023-02-28T21:25:49.932Z,8.09
2023-02-28T21:27:51.597Z,8.10
2023-02-28T21:29:53.164Z,8.15
2023-02-28T21:31:54.782Z,8.12
2023-02-28T21:33:58.047Z,8.13
2023-02-28T21:36:08.403Z,8.10
2023-02-28T21:38:09.952Z,8.11
2023-02-28T21:40:12.960Z,8.14
2023-02-28T21:42:14.611Z,8.15
2023-02-28T21:44:16.221Z,8.04
2023-02-28T21:46:20.691Z,7.82
2023-02-28T21:48:22.339Z,7.90
2023-02-28T21:50:23.929Z,7.95
2023-02-28T21:52:26.961Z,7.98
2023-02-28T21:54:28.512Z,8.04
2023-02-28T21:56:32.568Z,8.07
2023-02-28T21:58:34.690Z,8.06
2023-02-28T22:00:36.637Z,8.06
2023-02-28T22:02:38.323Z,8.03
2023-02-28T22:04:39.956Z,8.02
2023-02-28T22:06:41.664Z,7.99
2023-02-28T22:08:46.909Z,8.06
2023-02-28T22:10:50.522Z,8.03
2023-02-28T22:12:52.587Z,7.97
2023-02-28T22:14:54.127Z,7.91
2023-02-28T22:16:56.029Z,7.85
2023-02-28T22:18:58.466Z,7.82
2023-02-28T22:21:00.063Z,7.82
2023-02-28T22:23:01.641Z,7.87
2023-02-28T22:25:05.897Z,7.80
2023-02-28T22:27:07.532Z,7.69
2023-02-28T22:29:10.278Z,7.62
2023-02-28T22:31:13.891Z,7.59
2023-02-28T22:33:15.991Z,7.59
2023-02-28T22:35:17.909Z,7.58
2023-02-28T22:37:19.500Z,7.61
2023-02-28T22:39:21.005Z,7.59
2023-02-28T22:41:24.378Z,7.62
2023-02-28T22:43:26.034Z,7.60
2023-02-28T22:45:27.578Z,7.59
2023-02-28T22:47:29.147Z,7.67
2023-02-28T22:49:30.782Z,7.60
2023-02-28T22:51:33.253Z,7.38
2023-02-28T22:53:35.604Z,7.44
2023-02-28T22:55:37.226Z,7.52
2023-02-28T22:57:40.214Z,7.47
2023-02-28T22:59:41.949Z,7.53
2023-02-28T23:01:43.609Z,7.60
2023-02-28T23:03:45.401Z,7.59
2023-02-28T23:05:47.541Z,7.58
2023-02-28T23:07:49.329Z,7.60
2023-02-28T23:09:50.977Z,7.52
2023-02-28T23:11:52.619Z,7.55
2023-02-28T23:13:56.179Z,7.55
2023-02-28T23:16:00.065Z,7.48
2023-02-28T23:18:01.786Z,7.46
2023-02-28T23:20:04.053Z,7.48
2023-02-28T23:22:05.792Z,7.54
2023-02-28T23:24:09.463Z,7.49
2023-02-28T23:26:11.040Z,7.41
2023-02-28T23:28:12.681Z,7.44
2023-02-28T23:30:16.469Z,7.40
2023-02-28T23:32:18.101Z,7.40
2023-02-28T23:34:19.978Z,7.34
2023-02-28T23:36:21.757Z,7.39
2023-02-28T23:38:23.488Z,7.41
2023-02-28T23:40:25.433Z,7.39
2023-02-28T23:42:27.150Z,7.35
2023-02-28T23:44:28.818Z,7.26
2023-02-28T23:46:31.995Z,7.28
2023-02-28T23:48:33.997Z,7.19
2023-02-28T23:50:37.825Z,7.16
2023-02-28T23:52:39.421Z,7.18
2023-02-28T23:54:41.276Z,7.17
2023-02-28T23:56:43.062Z,7.16
2023-02-28T23:58:45.572Z,7.20
